Date,TemperatureHighF,TemperatureAvgF,TemperatureLowF,DewpointHighF,DewpointAvgF,DewpointLowF,HumidityHigh,HumidityAvg,HumidityLow,PressureMaxIn,PressureMinIn,WindSpeedMaxMPH,WindSpeedAvgMPH,GustSpeedMaxMPH,PrecipitationSumIn
2013-1-2,53.3,49.2,45.1,51.9,46.4,42.3,95,90,83,30.17,30.05,8,6,18,0.10
2013-1-3,56.7,47.3,41.8,41.8,38.5,35.0,90,72,52,30.32,30.18,8,5,18,0.00
2013-1-4,60.5,49.1,40.8,38.7,35.2,33.1,76,60,41,30.41,30.28,5,3,15,0.00
2013-1-5,53.5,48.6,44.3,44.3,37.8,33.0,88,67,54,30.29,30.18,2,1,12,0.00
2013-1-6,52.1,47.6,44.4,47.0,45.3,40.8,99,92,79,30.24,30.12,7,3,17,0.83
2013-1-7,62.0,48.9,37.8,44.8,40.3,36.2,95,74,49,30.26,30.12,4,2,15,0.01
2013-1-8,61.2,55.0,50.3,61.2,51.0,42.0,100,87,73,30.13,29.98,2,1,16,2.76
2013-1-9,66.4,63.2,60.7,66.4,63.2,60.7,100,100,100,30.10,30.00,6,2,14,1.14
2013-1-10,69.3,66.2,63.9,69.3,66.1,63.9,100,100,98,30.08,29.95,7,2,26,1.55
2013-1-11,71.1,67.5,62.9,70.8,66.8,62.9,100,98,91,30.02,29.92,4,0,8,0.46
2013-1-12,78.6,72.6,68.4,71.4,69.0,68.1,100,89,71,29.96,29.82,2,0,14,0.01
2013-1-13,76.0,62.3,47.4,70.5,59.9,46.9,99,92,83,30.03,29.79,11,5,21,1.01
2013-1-14,47.4,43.0,39.1,46.8,42.3,38.6,99,98,95,30.10,30.01,12,6,22,1.09
2013-1-15,44.2,41.8,38.0,44.2,41.7,37.7,100,99,97,30.00,29.91,10,5,16,0.56
2013-1-16,38.8,37.4,36.3,37.3,36.1,35.3,99,95,91,30.13,29.98,12,3,18,0.09
2013-1-17,54.5,43.3,36.0,36.2,34.4,32.0,93,73,43,30.38,30.12,11,1,19,0.00
2013-1-18,64.7,46.6,37.8,38.3,36.2,34.4,92,71,35,30.47,30.33,7,2,15,0.00
2013-1-19,66.1,50.8,36.8,47.7,43.1,35.5,96,78,51,30.33,30.17,0,0,12,0.00
2013-1-20,72.3,50.9,40.2,51.0,41.7,38.3,100,76,29,30.20,30.07,5,0,9,0.00
2013-1-21,71.1,54.5,42.2,49.1,44.9,40.2,94,73,45,30.16,30.08,3,0,11,0.00
2013-1-22,70.4,53.4,43.5,48.1,43.1,38.8,91,70,42,30.30,30.17,3,0,11,0.00
2013-1-23,72.0,55.7,41.9,50.6,46.4,40.8,98,75,41,30.33,30.22,3,0,10,0.00
2013-1-24,73.5,60.3,47.7,58.1,53.5,46.6,99,80,58,30.27,30.16,7,1,12,0.00
2013-1-25,74.2,62.4,50.7,58.8,55.9,49.9,98,81,57,30.18,30.08,11,2,14,0.01
2013-1-26,76.8,61.4,53.8,62.6,56.8,53.0,100,87,53,30.18,30.10,4,0,9,0.01
2013-1-27,76.9,64.3,53.1,63.0,58.2,51.7,100,82,57,30.18,30.09,2,0,16,0.01
2013-1-28,76.8,66.2,59.3,66.3,61.5,57.9,96,86,62,30.17,30.04,1,0,11,0.00
2013-1-29,78.0,70.9,65.0,71.9,66.8,63.9,99,88,73,30.03,29.71,5,2,21,0.01
2013-1-30,73.8,58.8,43.6,70.1,48.3,31.9,96,70,37,30.14,29.61,7,3,27,0.74
2013-1-31,64.5,49.3,35.5,39.2,32.8,26.9,99,59,24,30.28,30.14,3,1,12,0.00